THY6805 LTCB-LTAC
Flight info
| Callsign | THY6805 |
|---|---|
| Flight time | 0h 58m |
| Altitude | 30000 |
| Route | LTCB/10 N0443F300 EMLA1M EMLAD W71 TERME UW71 ILHAN ILHA1S LTAC/03C |
| Aircraft | B738/M-CDT/C |
Departure
| Time | 2026-04-27 15:16 |
|---|---|
| Airport | Ordu–Giresun Airport (LTCB) |
Arrival
| Time | 2026-04-27 16:15 |
|---|---|
| Airport | Esenboğa International Airport (LTAC) |
| Time | Latitude | Longitude | Altitude | Speed | Heading |
|---|---|---|---|---|---|
| 2026-04-27 15:03 | 40.96495 | 38.08033 | 19 ft | 0 kts | 326° |
| 2026-04-27 15:12 | 40.96495 | 38.08032 | 19 ft | 0 kts | 326° |
| 2026-04-27 15:13 | 40.96503 | 38.08031 | 19 ft | 3 kts | 358° |
| 2026-04-27 15:13 | 40.96538 | 38.08047 | 19 ft | 8 kts | 19° |
| 2026-04-27 15:13 | 40.96611 | 38.08081 | 19 ft | 14 kts | 19° |
| 2026-04-27 15:13 | 40.96721 | 38.08105 | 21 ft | 18 kts | 348° |
| 2026-04-27 15:14 | 40.96785 | 38.07963 | 22 ft | 21 kts | 282° |
| 2026-04-27 15:14 | 40.96824 | 38.07750 | 21 ft | 26 kts | 283° |
| 2026-04-27 15:14 | 40.96863 | 38.07501 | 19 ft | 28 kts | 281° |
| 2026-04-27 15:14 | 40.96902 | 38.07258 | 18 ft | 21 kts | 283° |
| 2026-04-27 15:15 | 40.96925 | 38.07090 | 18 ft | 18 kts | 271° |
| 2026-04-27 15:15 | 40.96901 | 38.06953 | 19 ft | 13 kts | 248° |
| 2026-04-27 15:15 | 40.96929 | 38.06876 | 19 ft | 6 kts | 350° |
| 2026-04-27 15:15 | 40.96953 | 38.06914 | 19 ft | 6 kts | 84° |
| 2026-04-27 15:16 | 40.96932 | 38.07078 | 21 ft | 48 kts | 102° |
| 2026-04-27 15:16 | 40.96812 | 38.07830 | 22 ft | 117 kts | 101° |
| 2026-04-27 15:16 | 40.96614 | 38.09136 | 95 ft | 164 kts | 99° |
| 2026-04-27 15:16 | 40.96392 | 38.10613 | 806 ft | 168 kts | 100° |
| 2026-04-27 15:17 | 40.96144 | 38.12141 | 1504 ft | 172 kts | 100° |
| 2026-04-27 15:17 | 40.95971 | 38.13706 | 1905 ft | 173 kts | 86° |
| 2026-04-27 15:17 | 40.96144 | 38.15300 | 2226 ft | 178 kts | 83° |
| 2026-04-27 15:17 | 40.96258 | 38.16966 | 2530 ft | 185 kts | 85° |
| 2026-04-27 15:18 | 40.96332 | 38.18691 | 2845 ft | 190 kts | 87° |
| 2026-04-27 15:18 | 40.96491 | 38.20401 | 3239 ft | 192 kts | 67° |
| 2026-04-27 15:18 | 40.97393 | 38.21777 | 3699 ft | 205 kts | 27° |
| 2026-04-27 15:18 | 40.98776 | 38.22127 | 4124 ft | 212 kts | 350° |
| 2026-04-27 15:19 | 41.00093 | 38.21244 | 4558 ft | 220 kts | 313° |
| 2026-04-27 15:19 | 41.00756 | 38.19413 | 4978 ft | 231 kts | 275° |
| 2026-04-27 15:19 | 41.00382 | 38.17320 | 5394 ft | 244 kts | 240° |
| 2026-04-27 15:19 | 40.99443 | 38.15363 | 5813 ft | 259 kts | 238° |
| 2026-04-27 15:20 | 40.98511 | 38.13331 | 6397 ft | 260 kts | 240° |
| 2026-04-27 15:20 | 40.97592 | 38.11230 | 6952 ft | 268 kts | 242° |
| 2026-04-27 15:20 | 40.97047 | 38.08879 | 7472 ft | 269 kts | 270° |
| 2026-04-27 15:20 | 40.97454 | 38.06494 | 8034 ft | 267 kts | 296° |
| 2026-04-27 15:21 | 40.98385 | 38.04361 | 8614 ft | 268 kts | 303° |
| 2026-04-27 15:21 | 40.99391 | 38.02281 | 9177 ft | 269 kts | 303° |
| 2026-04-27 15:21 | 41.00411 | 38.00200 | 9755 ft | 269 kts | 303° |
| 2026-04-27 15:21 | 41.01392 | 37.98122 | 10318 ft | 270 kts | 301° |
| 2026-04-27 15:22 | 41.02312 | 37.95941 | 10850 ft | 271 kts | 299° |
| 2026-04-27 15:22 | 41.03217 | 37.93729 | 11302 ft | 279 kts | 299° |
| 2026-04-27 15:22 | 41.04102 | 37.91564 | 11459 ft | 302 kts | 299° |
| 2026-04-27 15:22 | 41.05140 | 37.89034 | 11640 ft | 324 kts | 299° |
| 2026-04-27 15:23 | 41.06255 | 37.86327 | 11913 ft | 342 kts | 299° |
| 2026-04-27 15:23 | 41.07410 | 37.83529 | 12495 ft | 348 kts | 299° |
| 2026-04-27 15:23 | 41.08578 | 37.80702 | 13242 ft | 351 kts | 299° |
| 2026-04-27 15:23 | 41.09757 | 37.77852 | 13945 ft | 354 kts | 300° |
| 2026-04-27 15:24 | 41.10948 | 37.74973 | 14563 ft | 358 kts | 299° |
| 2026-04-27 15:24 | 41.12151 | 37.72064 | 15193 ft | 361 kts | 299° |
| 2026-04-27 15:24 | 41.13364 | 37.69126 | 15792 ft | 365 kts | 299° |
| 2026-04-27 15:24 | 41.14574 | 37.66197 | 16380 ft | 369 kts | 299° |
| 2026-04-27 15:25 | 41.15811 | 37.63198 | 16963 ft | 373 kts | 299° |
| 2026-04-27 15:25 | 41.17060 | 37.60165 | 17554 ft | 376 kts | 299° |
| 2026-04-27 15:25 | 41.18264 | 37.57018 | 18149 ft | 380 kts | 293° |
| 2026-04-27 15:25 | 41.19079 | 37.53711 | 18706 ft | 384 kts | 284° |
| 2026-04-27 15:26 | 41.19488 | 37.50186 | 19227 ft | 387 kts | 277° |
| 2026-04-27 15:26 | 41.19740 | 37.46614 | 19773 ft | 390 kts | 276° |
| 2026-04-27 15:26 | 41.19976 | 37.43013 | 20295 ft | 392 kts | 276° |
| 2026-04-27 15:26 | 41.20219 | 37.39392 | 20826 ft | 394 kts | 276° |
| 2026-04-27 15:27 | 41.20473 | 37.35765 | 21342 ft | 396 kts | 276° |
| 2026-04-27 15:27 | 41.20738 | 37.32105 | 21833 ft | 399 kts | 276° |
| 2026-04-27 15:27 | 41.21009 | 37.28429 | 22289 ft | 402 kts | 276° |
| 2026-04-27 15:27 | 41.21282 | 37.24712 | 22769 ft | 405 kts | 276° |
| 2026-04-27 15:28 | 41.21556 | 37.20975 | 23256 ft | 407 kts | 276° |
| 2026-04-27 15:28 | 41.21844 | 37.17228 | 23732 ft | 409 kts | 277° |
| 2026-04-27 15:28 | 41.22139 | 37.13458 | 24118 ft | 412 kts | 277° |
| 2026-04-27 15:28 | 41.22436 | 37.09670 | 24504 ft | 414 kts | 277° |
| 2026-04-27 15:29 | 41.22734 | 37.05852 | 24886 ft | 416 kts | 276° |
| 2026-04-27 15:29 | 41.23031 | 37.02020 | 25254 ft | 418 kts | 276° |
| 2026-04-27 15:29 | 41.23322 | 36.98224 | 25623 ft | 420 kts | 276° |
| 2026-04-27 15:29 | 41.23617 | 36.94363 | 25989 ft | 421 kts | 276° |
| 2026-04-27 15:30 | 41.23911 | 36.90480 | 26345 ft | 423 kts | 276° |
| 2026-04-27 15:30 | 41.24205 | 36.86585 | 26685 ft | 425 kts | 276° |
| 2026-04-27 15:30 | 41.24501 | 36.82653 | 27030 ft | 427 kts | 276° |
| 2026-04-27 15:30 | 41.24795 | 36.78725 | 27389 ft | 428 kts | 276° |
| 2026-04-27 15:31 | 41.25088 | 36.74792 | 27872 ft | 426 kts | 276° |
| 2026-04-27 15:31 | 41.25377 | 36.70884 | 28414 ft | 423 kts | 276° |
| 2026-04-27 15:31 | 41.25665 | 36.66992 | 28917 ft | 421 kts | 276° |
| 2026-04-27 15:31 | 41.25950 | 36.63126 | 29343 ft | 421 kts | 276° |
| 2026-04-27 15:32 | 41.26216 | 36.59252 | 29759 ft | 420 kts | 272° |
| 2026-04-27 15:32 | 41.26124 | 36.55372 | 30190 ft | 420 kts | 264° |
| 2026-04-27 15:32 | 41.24703 | 36.47833 | 30306 ft | 422 kts | 251° |
| 2026-04-27 15:33 | 41.23145 | 36.42337 | 30294 ft | 421 kts | 250° |
| 2026-04-27 15:33 | 41.21074 | 36.35058 | 30285 ft | 421 kts | 251° |
| 2026-04-27 15:34 | 41.19028 | 36.27760 | 30268 ft | 422 kts | 251° |
| 2026-04-27 15:34 | 41.16983 | 36.20429 | 30262 ft | 423 kts | 251° |
| 2026-04-27 15:35 | 41.14942 | 36.13121 | 30248 ft | 423 kts | 251° |
| 2026-04-27 15:35 | 41.12891 | 36.05805 | 30214 ft | 423 kts | 251° |
| 2026-04-27 15:36 | 41.10837 | 35.98494 | 30223 ft | 423 kts | 251° |
| 2026-04-27 15:36 | 41.08774 | 35.91198 | 30226 ft | 422 kts | 250° |
| 2026-04-27 15:37 | 41.06646 | 35.83938 | 30198 ft | 422 kts | 250° |
| 2026-04-27 15:37 | 41.04519 | 35.76735 | 30177 ft | 423 kts | 250° |
| 2026-04-27 15:38 | 41.02381 | 35.69478 | 30167 ft | 423 kts | 250° |
| 2026-04-27 15:38 | 41.00287 | 35.62213 | 30147 ft | 422 kts | 250° |
| 2026-04-27 15:39 | 40.98216 | 35.54937 | 30140 ft | 422 kts | 250° |
| 2026-04-27 15:39 | 40.96132 | 35.47666 | 30143 ft | 422 kts | 250° |
| 2026-04-27 15:40 | 40.94040 | 35.40401 | 30141 ft | 422 kts | 250° |
| 2026-04-27 15:40 | 40.91942 | 35.33133 | 30140 ft | 423 kts | 250° |
| 2026-04-27 15:41 | 40.89838 | 35.25861 | 30137 ft | 423 kts | 250° |
| 2026-04-27 15:41 | 40.87730 | 35.18593 | 30127 ft | 423 kts | 250° |
| 2026-04-27 15:42 | 40.85619 | 35.11333 | 30121 ft | 424 kts | 250° |
| 2026-04-27 15:42 | 40.83500 | 35.04069 | 30109 ft | 424 kts | 250° |
| 2026-04-27 15:43 | 40.81388 | 34.96844 | 30102 ft | 424 kts | 250° |
| 2026-04-27 15:43 | 40.79256 | 34.89573 | 30089 ft | 425 kts | 250° |
| 2026-04-27 15:44 | 40.77121 | 34.82310 | 30076 ft | 425 kts | 250° |
| 2026-04-27 15:44 | 40.74977 | 34.75036 | 30079 ft | 426 kts | 250° |
| 2026-04-27 15:45 | 40.72805 | 34.67768 | 30060 ft | 426 kts | 249° |
| 2026-04-27 15:45 | 40.70615 | 34.60537 | 30059 ft | 423 kts | 249° |
| 2026-04-27 15:46 | 40.68432 | 34.53338 | 30055 ft | 423 kts | 249° |
| 2026-04-27 15:46 | 40.67337 | 34.49729 | 29923 ft | 426 kts | 249° |
| 2026-04-27 15:46 | 40.66226 | 34.46068 | 29631 ft | 436 kts | 249° |
| 2026-04-27 15:47 | 40.65102 | 34.42369 | 29297 ft | 445 kts | 249° |
| 2026-04-27 15:47 | 40.63944 | 34.38564 | 28885 ft | 449 kts | 249° |
| 2026-04-27 15:47 | 40.62787 | 34.34771 | 28511 ft | 443 kts | 249° |
| 2026-04-27 15:47 | 40.61644 | 34.31033 | 28153 ft | 438 kts | 249° |
| 2026-04-27 15:48 | 40.60510 | 34.27325 | 27787 ft | 434 kts | 249° |
| 2026-04-27 15:48 | 40.59387 | 34.23657 | 27454 ft | 431 kts | 249° |
| 2026-04-27 15:48 | 40.58266 | 34.20000 | 27111 ft | 430 kts | 249° |
| 2026-04-27 15:49 | 40.56036 | 34.12738 | 26449 ft | 427 kts | 249° |
| 2026-04-27 15:49 | 40.54922 | 34.09118 | 26121 ft | 426 kts | 249° |
| 2026-04-27 15:49 | 40.53812 | 34.05515 | 25799 ft | 425 kts | 249° |
| 2026-04-27 15:49 | 40.52704 | 34.01920 | 25487 ft | 424 kts | 249° |
| 2026-04-27 15:50 | 40.51594 | 33.98330 | 25170 ft | 423 kts | 249° |
| 2026-04-27 15:50 | 40.50488 | 33.94747 | 24852 ft | 422 kts | 249° |
| 2026-04-27 15:50 | 40.49497 | 33.91170 | 24556 ft | 421 kts | 252° |
| 2026-04-27 15:50 | 40.48600 | 33.87527 | 24247 ft | 420 kts | 253° |
| 2026-04-27 15:51 | 40.47728 | 33.83866 | 23942 ft | 418 kts | 253° |
| 2026-04-27 15:51 | 40.46849 | 33.80228 | 23640 ft | 417 kts | 253° |
| 2026-04-27 15:51 | 40.45955 | 33.76614 | 23297 ft | 415 kts | 253° |
| 2026-04-27 15:51 | 40.45032 | 33.73037 | 22940 ft | 413 kts | 248° |
| 2026-04-27 15:52 | 40.43567 | 33.69788 | 22576 ft | 416 kts | 231° |
| 2026-04-27 15:52 | 40.41454 | 33.67199 | 22265 ft | 416 kts | 219° |
| 2026-04-27 15:52 | 40.39160 | 33.64913 | 21927 ft | 412 kts | 218° |
| 2026-04-27 15:52 | 40.36873 | 33.62685 | 21584 ft | 408 kts | 218° |
| 2026-04-27 15:53 | 40.34600 | 33.60467 | 21251 ft | 407 kts | 218° |
| 2026-04-27 15:53 | 40.32342 | 33.58241 | 20935 ft | 405 kts | 219° |
| 2026-04-27 15:53 | 40.30104 | 33.56017 | 20634 ft | 403 kts | 219° |
| 2026-04-27 15:53 | 40.27876 | 33.53792 | 20370 ft | 401 kts | 219° |
| 2026-04-27 15:54 | 40.25663 | 33.51578 | 20110 ft | 400 kts | 219° |
| 2026-04-27 15:54 | 40.23454 | 33.49365 | 19886 ft | 399 kts | 219° |
| 2026-04-27 15:54 | 40.21254 | 33.47164 | 19638 ft | 398 kts | 218° |
| 2026-04-27 15:54 | 40.19058 | 33.44972 | 19401 ft | 398 kts | 219° |
| 2026-04-27 15:55 | 40.16862 | 33.42766 | 19174 ft | 398 kts | 219° |
| 2026-04-27 15:55 | 40.15410 | 33.41290 | 19006 ft | 398 kts | 219° |
| 2026-04-27 15:55 | 40.12489 | 33.38340 | 18698 ft | 398 kts | 219° |
| 2026-04-27 15:55 | 40.10366 | 33.36204 | 18467 ft | 398 kts | 219° |
| 2026-04-27 15:56 | 40.08175 | 33.34001 | 18227 ft | 398 kts | 219° |
| 2026-04-27 15:56 | 40.06694 | 33.32512 | 18041 ft | 398 kts | 219° |
| 2026-04-27 15:56 | 40.03791 | 33.29594 | 17689 ft | 397 kts | 219° |
| 2026-04-27 15:56 | 40.01612 | 33.27404 | 17427 ft | 396 kts | 219° |
| 2026-04-27 15:57 | 39.99428 | 33.25209 | 17177 ft | 395 kts | 219° |
| 2026-04-27 15:57 | 39.97257 | 33.23029 | 16905 ft | 393 kts | 219° |
| 2026-04-27 15:57 | 39.95805 | 33.21571 | 16721 ft | 387 kts | 219° |
| 2026-04-27 15:57 | 39.93023 | 33.18782 | 16381 ft | 375 kts | 219° |
| 2026-04-27 15:58 | 39.91637 | 33.17393 | 16197 ft | 369 kts | 219° |
| 2026-04-27 15:58 | 39.89643 | 33.15398 | 15954 ft | 361 kts | 219° |
| 2026-04-27 15:58 | 39.87672 | 33.13427 | 15723 ft | 354 kts | 219° |
| 2026-04-27 15:58 | 39.85738 | 33.11494 | 15491 ft | 346 kts | 219° |
| 2026-04-27 15:59 | 39.83844 | 33.09600 | 15264 ft | 340 kts | 219° |
| 2026-04-27 15:59 | 39.81985 | 33.07744 | 15032 ft | 334 kts | 219° |
| 2026-04-27 15:59 | 39.80161 | 33.05924 | 14813 ft | 327 kts | 219° |
| 2026-04-27 15:59 | 39.78368 | 33.04136 | 14596 ft | 322 kts | 219° |
| 2026-04-27 16:00 | 39.76605 | 33.02379 | 14376 ft | 317 kts | 219° |
| 2026-04-27 16:00 | 39.74867 | 33.00648 | 14151 ft | 312 kts | 219° |
| 2026-04-27 16:00 | 39.73153 | 32.98943 | 13942 ft | 308 kts | 218° |
| 2026-04-27 16:00 | 39.71467 | 32.97264 | 13727 ft | 303 kts | 219° |
| 2026-04-27 16:01 | 39.69808 | 32.95615 | 13499 ft | 298 kts | 218° |
| 2026-04-27 16:01 | 39.68176 | 32.93993 | 13295 ft | 293 kts | 218° |
| 2026-04-27 16:01 | 39.66573 | 32.92402 | 13062 ft | 288 kts | 218° |
| 2026-04-27 16:01 | 39.65012 | 32.90854 | 12862 ft | 283 kts | 218° |
| 2026-04-27 16:02 | 39.63469 | 32.89298 | 12646 ft | 278 kts | 224° |
| 2026-04-27 16:02 | 39.62390 | 32.87286 | 12405 ft | 270 kts | 253° |
| 2026-04-27 16:02 | 39.62159 | 32.84937 | 12216 ft | 260 kts | 278° |
| 2026-04-27 16:02 | 39.62638 | 32.82725 | 12014 ft | 252 kts | 300° |
| 2026-04-27 16:03 | 39.63594 | 32.80851 | 11822 ft | 246 kts | 308° |
| 2026-04-27 16:03 | 39.64612 | 32.79087 | 11609 ft | 242 kts | 313° |
| 2026-04-27 16:03 | 39.65960 | 32.77865 | 11378 ft | 236 kts | 343° |
| 2026-04-27 16:03 | 39.67562 | 32.77678 | 11223 ft | 230 kts | 11° |
| 2026-04-27 16:04 | 39.69002 | 32.78491 | 11060 ft | 224 kts | 34° |
| 2026-04-27 16:04 | 39.70255 | 32.79639 | 10881 ft | 223 kts | 36° |
| 2026-04-27 16:04 | 39.71510 | 32.80825 | 10671 ft | 223 kts | 36° |
| 2026-04-27 16:04 | 39.72769 | 32.82017 | 10479 ft | 225 kts | 36° |
| 2026-04-27 16:05 | 39.74038 | 32.83217 | 10294 ft | 227 kts | 36° |
| 2026-04-27 16:05 | 39.75329 | 32.84435 | 10111 ft | 230 kts | 36° |
| 2026-04-27 16:05 | 39.76633 | 32.85663 | 9918 ft | 231 kts | 36° |
| 2026-04-27 16:05 | 39.77936 | 32.86888 | 9715 ft | 232 kts | 36° |
| 2026-04-27 16:06 | 39.79244 | 32.88118 | 9507 ft | 232 kts | 36° |
| 2026-04-27 16:06 | 39.80550 | 32.89345 | 9288 ft | 231 kts | 35° |
| 2026-04-27 16:06 | 39.81849 | 32.90565 | 9081 ft | 228 kts | 35° |
| 2026-04-27 16:06 | 39.83125 | 32.91764 | 8868 ft | 225 kts | 35° |
| 2026-04-27 16:07 | 39.84373 | 32.92936 | 8652 ft | 218 kts | 35° |
| 2026-04-27 16:07 | 39.85582 | 32.94073 | 8435 ft | 210 kts | 35° |
| 2026-04-27 16:07 | 39.86744 | 32.95165 | 8207 ft | 202 kts | 35° |
| 2026-04-27 16:07 | 39.87861 | 32.96216 | 8024 ft | 195 kts | 35° |
| 2026-04-27 16:08 | 39.88954 | 32.97243 | 7821 ft | 193 kts | 34° |
| 2026-04-27 16:08 | 39.90183 | 32.97853 | 7596 ft | 192 kts | 359° |
| 2026-04-27 16:08 | 39.91427 | 32.97314 | 7420 ft | 192 kts | 322° |
| 2026-04-27 16:08 | 39.92326 | 32.96023 | 7265 ft | 194 kts | 308° |
| 2026-04-27 16:09 | 39.93121 | 32.94607 | 7068 ft | 197 kts | 307° |
| 2026-04-27 16:09 | 39.94750 | 32.91672 | 6704 ft | 201 kts | 307° |
| 2026-04-27 16:09 | 39.95568 | 32.90207 | 6495 ft | 198 kts | 308° |
| 2026-04-27 16:10 | 39.97147 | 32.87455 | 6021 ft | 178 kts | 320° |
| 2026-04-27 16:10 | 39.99213 | 32.86974 | 5695 ft | 144 kts | 16° |
| 2026-04-27 16:11 | 40.00080 | 32.87646 | 5482 ft | 146 kts | 33° |
| 2026-04-27 16:11 | 40.01758 | 32.89197 | 5092 ft | 148 kts | 32° |
| 2026-04-27 16:12 | 40.03405 | 32.90736 | 4673 ft | 145 kts | 32° |
| 2026-04-27 16:12 | 40.04199 | 32.91486 | 4477 ft | 140 kts | 33° |
| 2026-04-27 16:12 | 40.05834 | 32.93023 | 4042 ft | 146 kts | 36° |
| 2026-04-27 16:13 | 40.06644 | 32.93788 | 3809 ft | 142 kts | 37° |
| 2026-04-27 16:13 | 40.08207 | 32.95274 | 3458 ft | 135 kts | 37° |
| 2026-04-27 16:13 | 40.08970 | 32.95999 | 3332 ft | 135 kts | 38° |
| 2026-04-27 16:14 | 40.10469 | 32.97423 | 3151 ft | 137 kts | 37° |
| 2026-04-27 16:14 | 40.12028 | 32.98906 | 3114 ft | 130 kts | 34° |
| 2026-04-27 16:15 | 40.12491 | 32.99356 | 3119 ft | 10 kts | 32° |
| 2026-04-27 16:15 | 40.12510 | 32.99372 | 3119 ft | 4 kts | 33° |
| 2026-04-27 16:16 | 40.12585 | 32.99481 | 3120 ft | 12 kts | 79° |
| 2026-04-27 16:16 | 40.12585 | 32.99740 | 3121 ft | 15 kts | 91° |
| 2026-04-27 16:17 | 40.12659 | 32.99957 | 3122 ft | 14 kts | 32° |
| 2026-04-27 16:17 | 40.12731 | 33.00083 | 3122 ft | 5 kts | 124° |
| 2026-04-27 16:18 | 40.12718 | 33.00105 | 3122 ft | 0 kts | 127° |